Time;durP1;ratioP1;P1;durP2;ratioP2;P2;SDS_P1;SDS_P2;PMS_P1;PMS_P2;Temp;Humidity;BMP_temperature;BMP_pressure;BME280_temperature;BME280_humidity;BME280_pressure;Samples;Min_cycle;Max_cycle;Signal;HPM_P1;HPM_P2
2023/09/28 00:02:01;;;;;;;2.08;1.08;;;;;;;;;;5043308;28;20056;-73
2023/09/28 00:04:32;;;;;;;0.75;0.75;;;;;;;;;;5043242;28;20689;-74
2023/09/28 00:07:03;;;;;;;1.30;0.75;;;;;;;;;;5043187;28;20056;-73
2023/09/28 00:09:33;;;;;;;1.88;0.93;;;;;;;;;;5043499;28;20041;-74
2023/09/28 00:12:03;;;;;;;1.98;0.90;;;;;;;;;;5043878;28;20136;-74
2023/09/28 00:14:34;;;;;;;2.40;0.90;;;;;;;;;;5043089;28;20492;-74
2023/09/28 00:17:08;;;;;;;1.75;0.80;;;;;;;;;;5044121;28;20408;-74
2023/09/28 00:19:39;;;;;;;2.42;0.85;;;;;;;;;;5043740;28;20052;-74
2023/09/28 00:22:09;;;;;;;3.58;1.15;;;;;;;;;;5043128;28;20519;-73
2023/09/28 00:24:39;;;;;;;2.63;1.13;;;;;;;;;;5025311;28;20060;-73
2023/09/28 00:27:10;;;;;;;2.35;1.00;;;;;;;;;;5043107;28;20057;-72
2023/09/28 00:29:40;;;;;;;4.03;1.02;;;;;;;;;;5040396;28;20071;-74
2023/09/28 00:32:12;;;;;;;3.58;0.98;;;;;;;;;;5039787;28;20531;-74
2023/09/28 00:34:42;;;;;;;2.45;0.88;;;;;;;;;;5042038;28;20045;-74
2023/09/28 00:37:13;;;;;;;3.42;1.05;;;;;;;;;;5041210;28;20053;-74
2023/09/28 00:39:44;;;;;;;1.13;0.70;;;;;;;;;;5040615;28;20049;-74
2023/09/28 00:42:16;;;;;;;3.40;1.02;;;;;;;;;;5041698;28;20037;-74
2023/09/28 00:44:48;;;;;;;1.17;0.88;;;;;;;;;;5040647;28;20079;-74
2023/09/28 00:47:18;;;;;;;3.42;0.73;;;;;;;;;;5042515;28;20419;-73
2023/09/28 00:49:48;;;;;;;0.95;0.90;;;;;;;;;;5041727;28;20401;-74
2023/09/28 00:52:21;;;;;;;1.70;1.00;;;;;;;;;;5042057;28;20082;-74
2023/09/28 00:54:51;;;;;;;1.90;0.70;;;;;;;;;;5041349;28;20045;-74
2023/09/28 00:57:20;;;;;;;;;;;;;;;;;;5043199;28;20052;-74
2023/09/28 00:59:50;;;;;;;3.20;1.13;;;;;;;;;;5040606;28;19924;-74
2023/09/28 01:02:22;;;;;;;6.63;1.33;;;;;;;;;;5042503;28;20507;-74
2023/09/28 01:04:53;;;;;;;2.72;1.17;;;;;;;;;;5040894;28;20519;-73
2023/09/28 01:07:28;;;;;;;2.20;0.98;;;;;;;;;;5042669;28;20867;-73
2023/09/28 01:10:00;;;;;;;3.35;1.00;;;;;;;;;;5041827;28;20059;-73
2023/09/28 01:12:31;;;;;;;2.97;1.00;;;;;;;;;;5041653;28;20045;-73
2023/09/28 01:15:03;;;;;;;4.30;1.45;;;;;;;;;;5041142;28;20056;-73
2023/09/28 01:17:33;;;;;;;5.13;1.10;;;;;;;;;;5042326;28;20052;-73
2023/09/28 01:20:35;;;;;;;1.95;0.90;;;;;;;;;;5040215;28;20057;-73
2023/09/28 01:23:01;;;;;;;4.10;1.10;;;;;;;;;;5027070;28;20072;-72
2023/09/28 01:25:32;;;;;;;2.92;0.90;;;;;;;;;;5040226;28;20439;-73
2023/09/28 01:28:03;;;;;;;7.70;0.90;;;;;;;;;;5041892;28;20060;-73
2023/09/28 01:30:34;;;;;;;3.97;0.77;;;;;;;;;;5042008;28;20041;-73
2023/09/28 01:33:04;;;;;;;2.08;1.10;;;;;;;;;;5041992;28;20528;-73
2023/09/28 01:35:35;;;;;;;1.40;0.82;;;;;;;;;;5040832;28;20983;-73
2023/09/28 01:38:49;;;;;;;3.72;1.10;;;;;;;;;;5041049;28;20446;-73
2023/09/28 01:41:19;;;;;;;1.35;0.88;;;;;;;;;;5035168;28;20061;-73
2023/09/28 01:43:48;;;;;;;;;;;;;;;;;;5041738;28;20056;-72
2023/09/28 01:46:20;;;;;;;3.83;0.95;;;;;;;;;;5040593;28;19935;-72
2023/09/28 01:48:51;;;;;;;1.63;0.98;;;;;;;;;;5040845;28;20064;-72
2023/09/28 01:51:22;;;;;;;3.42;1.23;;;;;;;;;;5041976;28;20048;-72
2023/09/28 01:53:53;;;;;;;5.53;1.50;;;;;;;;;;5042050;28;20072;-72
2023/09/28 01:56:23;;;;;;;4.25;1.75;;;;;;;;;;5041998;28;20092;-73
2023/09/28 01:58:53;;;;;;;3.33;1.15;;;;;;;;;;5040290;28;20052;-72
2023/09/28 02:01:28;;;;;;;3.53;1.30;;;;;;;;;;5039771;28;20055;-72
2023/09/28 02:03:58;;;;;;;4.15;1.33;;;;;;;;;;5040584;28;20053;-72
2023/09/28 02:06:29;;;;;;;2.83;1.25;;;;;;;;;;5041903;28;20519;-72
2023/09/28 02:08:59;;;;;;;5.07;1.30;;;;;;;;;;5040434;28;20059;-72
2023/09/28 02:11:30;;;;;;;5.20;1.45;;;;;;;;;;5041830;28;20053;-72
2023/09/28 02:14:00;;;;;;;5.55;1.73;;;;;;;;;;5040501;28;20045;-72
2023/09/28 02:16:30;;;;;;;6.78;0.98;;;;;;;;;;5041252;28;20072;-72
2023/09/28 02:18:59;;;;;;;;;;;;;;;;;;5042120;28;20049;-72
2023/09/28 02:21:30;;;;;;;3.05;1.27;;;;;;;;;;5040881;28;20520;-72
2023/09/28 02:24:01;;;;;;;4.07;1.40;;;;;;;;;;5041705;28;20413;-72
2023/09/28 02:26:31;;;;;;;1.67;1.20;;;;;;;;;;5041753;28;20060;-72
2023/09/28 02:29:02;;;;;;;5.65;1.70;;;;;;;;;;5041006;28;20045;-72
2023/09/28 02:31:34;;;;;;;3.35;1.40;;;;;;;;;;5042986;28;20509;-72
2023/09/28 02:34:05;;;;;;;3.60;1.40;;;;;;;;;;5044132;28;21119;-72
2023/09/28 02:36:36;;;;;;;4.63;1.33;;;;;;;;;;5044546;28;20048;-72
2023/09/28 02:39:07;;;;;;;2.08;1.20;;;;;;;;;;5043285;28;20480;-72
2023/09/28 02:41:38;;;;;;;2.40;1.30;;;;;;;;;;5044837;28;20064;-72
2023/09/28 02:44:08;;;;;;;3.92;1.50;;;;;;;;;;5044911;28;20033;-72
2023/09/28 02:46:38;;;;;;;2.95;1.25;;;;;;;;;;5044963;28;20044;-72
2023/09/28 02:49:09;;;;;;;8.57;1.65;;;;;;;;;;5044053;28;20048;-72
2023/09/28 02:51:40;;;;;;;3.47;1.50;;;;;;;;;;5044505;28;20606;-73
2023/09/28 02:54:11;;;;;;;2.83;1.30;;;;;;;;;;5044605;28;20044;-73
2023/09/28 02:56:42;;;;;;;2.83;1.48;;;;;;;;;;5043252;28;20049;-73
2023/09/28 02:59:12;;;;;;;3.90;1.60;;;;;;;;;;5043892;28;20049;-73
2023/09/28 03:01:42;;;;;;;4.80;1.50;;;;;;;;;;5045255;28;20049;-73
2023/09/28 03:04:13;;;;;;;3.08;1.60;;;;;;;;;;5043577;28;20049;-73
2023/09/28 03:06:46;;;;;;;5.68;1.42;;;;;;;;;;5044777;28;20048;-73
2023/09/28 03:09:16;;;;;;;4.43;1.50;;;;;;;;;;5044412;28;20048;-73
2023/09/28 03:11:46;;;;;;;3.45;1.10;;;;;;;;;;5044608;28;20486;-73
2023/09/28 03:14:19;;;;;;;5.07;1.38;;;;;;;;;;5044185;28;20045;-73
2023/09/28 03:16:50;;;;;;;4.80;1.35;;;;;;;;;;5043542;28;20060;-73
2023/09/28 03:19:22;;;;;;;4.05;1.30;;;;;;;;;;5044596;28;20423;-73
2023/09/28 03:21:53;;;;;;;4.68;1.60;;;;;;;;;;5044067;28;20579;-73
2023/09/28 03:24:23;;;;;;;2.17;1.10;;;;;;;;;;5044178;28;20049;-73
2023/09/28 03:26:55;;;;;;;2.80;1.40;;;;;;;;;;5043973;28;20736;-73
2023/09/28 03:29:42;;;;;;;2.08;1.20;;;;;;;;;;5042924;28;20060;-72
2023/09/28 03:32:12;;;;;;;7.53;1.70;;;;;;;;;;5043677;28;20064;-73
2023/09/28 03:34:42;;;;;;;4.57;1.17;;;;;;;;;;5043740;28;20052;-73
2023/09/28 03:37:18;;;;;;;9.07;1.50;;;;;;;;;;5044969;28;20068;-73
2023/09/28 03:39:50;;;;;;;2.45;1.40;;;;;;;;;;5043703;28;20052;-73
2023/09/28 03:42:20;;;;;;;2.90;1.48;;;;;;;;;;5043613;28;20049;-73
2023/09/28 03:44:50;;;;;;;2.47;1.70;;;;;;;;;;5044705;28;20857;-72
2023/09/28 03:47:20;;;;;;;4.72;1.70;;;;;;;;;;5043610;28;20041;-73
2023/09/28 03:49:49;;;;;;;;;;;;;;;;;;5044303;28;20059;-73
2023/09/28 03:52:21;;;;;;;5.05;1.30;;;;;;;;;;5043789;28;19931;-73
2023/09/28 03:54:52;;;;;;;4.55;1.20;;;;;;;;;;5043281;28;20045;-73
2023/09/28 03:57:23;;;;;;;2.72;1.25;;;;;;;;;;5043741;28;20060;-72
2023/09/28 03:59:52;;;;;;;;;;;;;;;;;;5043779;28;20056;-72
2023/09/28 04:02:30;;;;;;;3.38;1.10;;;;;;;;;;5043654;28;19920;-72
2023/09/28 04:05:00;;;;;;;4.93;1.33;;;;;;;;;;5042507;28;20060;-73
2023/09/28 04:07:31;;;;;;;6.22;1.55;;;;;;;;;;5042980;28;20045;-73
2023/09/28 04:10:03;;;;;;;3.55;1.55;;;;;;;;;;5043651;28;20048;-73
2023/09/28 04:12:33;;;;;;;4.95;1.25;;;;;;;;;;5042303;28;20049;-75
2023/09/28 04:15:05;;;;;;;3.50;1.38;;;;;;;;;;5043299;28;20424;-75
2023/09/28 04:17:37;;;;;;;1.75;1.15;;;;;;;;;;5043662;28;20033;-73
2023/09/28 04:20:12;;;;;;;2.67;1.40;;;;;;;;;;5043086;28;20045;-75
2023/09/28 04:22:43;;;;;;;2.53;1.20;;;;;;;;;;5042895;28;20056;-73
2023/09/28 04:25:18;;;;;;;2.58;1.20;;;;;;;;;;5043295;28;20044;-74
2023/09/28 04:27:49;;;;;;;7.72;1.70;;;;;;;;;;5042882;28;20036;-75
2023/09/28 04:30:21;;;;;;;5.18;1.20;;;;;;;;;;5042734;28;20045;-75
2023/09/28 04:32:51;;;;;;;3.38;1.58;;;;;;;;;;5043014;28;20729;-75
2023/09/28 04:35:22;;;;;;;13.88;2.22;;;;;;;;;;5042968;28;20041;-74
2023/09/28 04:37:52;;;;;;;2.33;1.35;;;;;;;;;;5042903;28;20049;-73
2023/09/28 04:40:24;;;;;;;3.85;1.58;;;;;;;;;;5042850;28;20554;-73
2023/09/28 04:42:54;;;;;;;2.30;1.10;;;;;;;;;;5042620;28;20048;-73
2023/09/28 04:45:25;;;;;;;3.10;0.95;;;;;;;;;;5042787;28;20506;-73
2023/09/28 04:47:57;;;;;;;3.78;1.50;;;;;;;;;;5043132;28;20523;-73
2023/09/28 04:50:28;;;;;;;1.75;1.00;;;;;;;;;;5042758;28;20056;-73
2023/09/28 04:52:58;;;;;;;2.75;1.40;;;;;;;;;;5042322;28;20053;-73
2023/09/28 04:55:28;;;;;;;5.00;1.52;;;;;;;;;;5041039;28;20064;-73
2023/09/28 04:57:59;;;;;;;5.75;1.30;;;;;;;;;;5042777;28;20048;-73
2023/09/28 05:00:30;;;;;;;1.25;1.10;;;;;;;;;;5042448;28;20049;-73
2023/09/28 05:03:04;;;;;;;2.20;1.27;;;;;;;;;;5042138;28;20045;-73
2023/09/28 05:05:35;;;;;;;3.53;1.45;;;;;;;;;;5042446;28;20052;-72
2023/09/28 05:08:06;;;;;;;4.45;1.50;;;;;;;;;;5041912;28;20411;-73
2023/09/28 05:10:36;;;;;;;3.40;1.50;;;;;;;;;;5042195;28;20045;-73
2023/09/28 05:13:05;;;;;;;;;;;;;;;;;;5041639;28;20057;-73
2023/09/28 05:15:36;;;;;;;1.58;1.10;;;;;;;;;;5042224;28;19925;-73
2023/09/28 05:18:06;;;;;;;3.35;1.10;;;;;;;;;;5041965;28;20049;-73
2023/09/28 05:20:37;;;;;;;2.22;1.00;;;;;;;;;;5042426;28;20047;-73
2023/09/28 05:23:07;;;;;;;1.42;0.95;;;;;;;;;;5042085;28;20055;-73
2023/09/28 05:25:37;;;;;;;3.85;1.30;;;;;;;;;;5040556;28;20053;-73
2023/09/28 05:28:08;;;;;;;2.78;1.38;;;;;;;;;;5041377;28;20053;-73
2023/09/28 05:30:39;;;;;;;8.70;1.40;;;;;;;;;;5042105;28;20767;-73
2023/09/28 05:33:10;;;;;;;5.18;1.25;;;;;;;;;;5042122;28;20049;-73
2023/09/28 05:35:40;;;;;;;6.80;1.48;;;;;;;;;;5041975;28;20057;-73
2023/09/28 05:38:11;;;;;;;6.82;1.15;;;;;;;;;;5041902;28;20045;-73
2023/09/28 05:40:42;;;;;;;2.35;1.10;;;;;;;;;;5041822;28;20144;-73
2023/09/28 05:43:12;;;;;;;3.63;1.20;;;;;;;;;;5041455;28;20503;-73
2023/09/28 05:45:41;;;;;;;;;;;;;;;;;;5042193;28;20056;-73
2023/09/28 05:48:12;;;;;;;4.20;1.27;;;;;;;;;;5040963;28;19925;-73
2023/09/28 05:50:42;;;;;;;4.10;1.25;;;;;;;;;;5041950;28;20052;-73
2023/09/28 05:53:13;;;;;;;5.75;1.20;;;;;;;;;;5041423;28;20033;-73
2023/09/28 05:55:43;;;;;;;14.02;1.60;;;;;;;;;;5041555;28;20052;-73
2023/09/28 05:58:13;;;;;;;8.07;1.40;;;;;;;;;;5041862;28;20048;-73
2023/09/28 06:00:43;;;;;;;2.35;1.40;;;;;;;;;;5041974;28;20416;-73
2023/09/28 06:03:15;;;;;;;2.78;1.27;;;;;;;;;;5041686;28;20412;-73
2023/09/28 06:05:46;;;;;;;2.53;1.52;;;;;;;;;;5044143;28;20048;-73
2023/09/28 06:08:18;;;;;;;2.90;1.08;;;;;;;;;;5045864;28;20049;-73
2023/09/28 06:10:48;;;;;;;7.20;1.10;;;;;;;;;;5045476;28;20045;-73
2023/09/28 06:13:35;;;;;;;6.82;1.30;;;;;;;;;;5045731;28;20049;-73
2023/09/28 06:16:13;;;;;;;3.70;1.00;;;;;;;;;;5045672;28;20056;-73
2023/09/28 06:18:44;;;;;;;4.15;1.27;;;;;;;;;;5045108;28;20052;-73
2023/09/28 06:21:14;;;;;;;4.63;1.00;;;;;;;;;;5045743;28;20056;-73
2023/09/28 06:23:45;;;;;;;2.00;1.20;;;;;;;;;;5045101;28;20507;-73
2023/09/28 06:26:15;;;;;;;5.80;1.20;;;;;;;;;;5045638;28;20052;-73
2023/09/28 06:29:07;;;;;;;4.40;1.17;;;;;;;;;;5045790;28;20053;-73
2023/09/28 06:31:38;;;;;;;1.25;1.08;;;;;;;;;;5044984;28;20420;-73
2023/09/28 06:34:09;;;;;;;1.67;1.10;;;;;;;;;;5043792;28;20057;-73
2023/09/28 06:36:40;;;;;;;11.63;1.48;;;;;;;;;;5045936;28;20496;-73
2023/09/28 06:39:12;;;;;;;4.63;1.40;;;;;;;;;;5043779;28;20188;-73
2023/09/28 06:41:42;;;;;;;1.85;1.15;;;;;;;;;;5044867;28;20048;-73
2023/09/28 06:44:15;;;;;;;3.85;1.30;;;;;;;;;;5028130;28;20053;-73
2023/09/28 06:46:46;;;;;;;4.43;1.25;;;;;;;;;;5045008;28;20041;-73
2023/09/28 06:49:18;;;;;;;2.25;1.13;;;;;;;;;;5045330;28;20049;-73
2023/09/28 06:51:48;;;;;;;;;;;;;;;;;;5045885;28;20048;-73
2023/09/28 06:54:20;;;;;;;3.13;1.30;;;;;;;;;;5045179;28;19931;-73
2023/09/28 06:56:51;;;;;;;3.15;1.10;;;;;;;;;;5045437;28;20045;-73
2023/09/28 06:59:22;;;;;;;3.80;1.42;;;;;;;;;;5043859;28;20057;-73
2023/09/28 07:01:52;;;;;;;4.50;1.33;;;;;;;;;;5043132;28;20056;-73
2023/09/28 07:04:23;;;;;;;3.80;1.65;;;;;;;;;;5043285;28;20386;-73
2023/09/28 07:06:53;;;;;;;4.13;1.65;;;;;;;;;;5042887;28;20055;-73
2023/09/28 07:09:24;;;;;;;7.85;1.73;;;;;;;;;;5045065;28;20440;-73
2023/09/28 07:11:54;;;;;;;2.65;1.42;;;;;;;;;;5043462;28;20053;-73
2023/09/28 07:14:23;;;;;;;;;;;;;;;;;;5045673;28;20053;-73
2023/09/28 07:16:54;;;;;;;2.97;1.48;;;;;;;;;;5042050;28;19929;-73
2023/09/28 07:19:25;;;;;;;3.88;1.98;;;;;;;;;;5042873;28;20403;-73
2023/09/28 07:21:56;;;;;;;2.05;1.50;;;;;;;;;;5043036;28;20504;-73
2023/09/28 07:24:26;;;;;;;3.53;1.65;;;;;;;;;;5044813;28;20415;-73
2023/09/28 07:26:56;;;;;;;4.13;1.60;;;;;;;;;;5045069;28;20068;-73
2023/09/28 07:29:27;;;;;;;;;;;;;;;;;;5044759;28;20060;-73
2023/09/28 07:31:58;;;;;;;8.02;2.10;;;;;;;;;;5043963;28;19950;-73
2023/09/28 07:34:29;;;;;;;3.20;1.65;;;;;;;;;;5044197;28;20055;-73
2023/09/28 07:36:58;;;;;;;;;;;;;;;;;;5044225;28;20048;-73
2023/09/28 07:39:29;;;;;;;2.15;1.45;;;;;;;;;;5043622;28;20422;-73
2023/09/28 07:42:04;;;;;;;6.13;1.75;;;;;;;;;;5044260;28;20507;-73
2023/09/28 07:44:36;;;;;;;2.78;1.50;;;;;;;;;;5044379;28;20041;-73
2023/09/28 07:47:05;;;;;;;4.35;1.52;;;;;;;;;;5043453;28;20048;-73
2023/09/28 07:49:36;;;;;;;4.32;2.03;;;;;;;;;;5043813;28;20058;-73
2023/09/28 07:52:08;;;;;;;4.75;1.98;;;;;;;;;;5044020;28;20072;-73
2023/09/28 07:54:40;;;;;;;2.78;1.67;;;;;;;;;;5043385;28;20045;-73
2023/09/28 07:57:10;;;;;;;2.55;1.55;;;;;;;;;;5043858;28;20055;-73
2023/09/28 07:59:40;;;;;;;2.10;1.60;;;;;;;;;;5043624;28;20045;-73
2023/09/28 08:02:11;;;;;;;3.05;1.50;;;;;;;;;;5043854;28;20049;-73
2023/09/28 08:04:42;;;;;;;4.82;1.85;;;;;;;;;;5043474;28;20056;-73
2023/09/28 08:07:12;;;;;;;2.85;1.67;;;;;;;;;;5043826;28;20053;-73
2023/09/28 08:09:43;;;;;;;4.93;1.35;;;;;;;;;;5043247;28;20056;-73
2023/09/28 08:12:14;;;;;;;4.88;1.77;;;;;;;;;;5043476;28;20045;-73
2023/09/28 08:14:44;;;;;;;2.40;1.67;;;;;;;;;;5043225;28;20775;-74
2023/09/28 08:17:14;;;;;;;6.55;1.85;;;;;;;;;;5043471;28;20049;-73
2023/09/28 08:19:45;;;;;;;8.88;1.95;;;;;;;;;;5042366;28;20522;-73
2023/09/28 08:22:15;;;;;;;4.40;1.75;;;;;;;;;;5043192;28;20052;-73
2023/09/28 08:24:45;;;;;;;11.18;1.73;;;;;;;;;;5043535;28;20045;-73
2023/09/28 08:27:16;;;;;;;4.47;1.63;;;;;;;;;;5043190;28;20824;-73
2023/09/28 08:29:47;;;;;;;1.92;1.63;;;;;;;;;;5043053;28;20060;-73
2023/09/28 08:32:18;;;;;;;5.32;1.80;;;;;;;;;;5043297;28;20064;-73
2023/09/28 08:34:49;;;;;;;4.22;1.63;;;;;;;;;;5042105;28;20061;-73
2023/09/28 08:37:19;;;;;;;2.75;1.73;;;;;;;;;;5043359;28;20049;-73
2023/09/28 08:39:50;;;;;;;9.07;2.70;;;;;;;;;;5042906;28;20412;-73
2023/09/28 08:42:25;;;;;;;3.28;1.80;;;;;;;;;;5043109;28;20053;-74
2023/09/28 08:45:03;;;;;;;5.28;1.85;;;;;;;;;;5042926;28;20716;-73
2023/09/28 08:47:40;;;;;;;3.00;1.80;;;;;;;;;;5043171;28;20045;-73
2023/09/28 08:50:16;;;;;;;5.18;2.13;;;;;;;;;;5041913;28;20056;-73
2023/09/28 08:52:47;;;;;;;9.00;2.55;;;;;;;;;;5042841;28;20526;-73
2023/09/28 08:55:21;;;;;;;4.95;2.10;;;;;;;;;;5041948;28;20606;-73
2023/09/28 08:57:51;;;;;;;4.05;2.00;;;;;;;;;;5042571;28;20037;-73
2023/09/28 09:00:24;;;;;;;4.35;2.22;;;;;;;;;;5042613;28;20661;-74
2023/09/28 09:02:59;;;;;;;2.25;1.55;;;;;;;;;;5042577;28;20045;-75
2023/09/28 09:05:30;;;;;;;8.88;1.80;;;;;;;;;;5042293;28;20072;-73
2023/09/28 09:08:00;;;;;;;4.07;1.70;;;;;;;;;;5042119;28;20051;-73
2023/09/28 09:10:31;;;;;;;4.10;1.98;;;;;;;;;;5042545;28;20401;-73
2023/09/28 09:13:02;;;;;;;2.97;1.77;;;;;;;;;;5042813;28;20052;-73
2023/09/28 09:15:32;;;;;;;3.00;1.90;;;;;;;;;;5041324;28;20086;-73
2023/09/28 09:18:04;;;;;;;3.47;2.20;;;;;;;;;;5042075;28;20522;-74
2023/09/28 09:20:35;;;;;;;4.80;2.08;;;;;;;;;;5042621;28;20512;-74
2023/09/28 09:23:12;;;;;;;12.80;3.08;;;;;;;;;;5042802;28;20052;-74
2023/09/28 09:25:47;;;;;;;9.07;2.40;;;;;;;;;;5042258;28;20041;-74
2023/09/28 09:28:37;;;;;;;3.75;2.10;;;;;;;;;;5041406;28;20053;-74
2023/09/28 09:31:07;;;;;;;9.45;2.67;;;;;;;;;;5041641;28;20519;-73
2023/09/28 09:33:39;;;;;;;3.72;1.90;;;;;;;;;;5042028;28;20056;-74
2023/09/28 09:36:09;;;;;;;7.32;1.85;;;;;;;;;;5041969;28;20419;-74
2023/09/28 09:38:39;;;;;;;3.67;1.88;;;;;;;;;;5041860;28;20045;-74
2023/09/28 09:41:10;;;;;;;4.97;1.98;;;;;;;;;;5041482;28;20049;-74
2023/09/28 09:43:42;;;;;;;5.32;1.80;;;;;;;;;;5041863;28;20056;-72
2023/09/28 09:46:13;;;;;;;7.45;2.00;;;;;;;;;;5042117;28;20064;-74
2023/09/28 09:48:44;;;;;;;5.38;1.90;;;;;;;;;;5042085;28;20587;-73
2023/09/28 09:51:16;;;;;;;4.60;2.33;;;;;;;;;;5041240;28;20053;-73
2023/09/28 09:53:47;;;;;;;4.38;2.00;;;;;;;;;;5042120;28;20049;-75
2023/09/28 09:56:19;;;;;;;4.15;2.35;;;;;;;;;;5042938;28;20974;-75
2023/09/28 09:58:53;;;;;;;5.22;2.33;;;;;;;;;;5041634;28;20037;-74
2023/09/28 10:01:23;;;;;;;5.13;2.55;;;;;;;;;;5041443;28;20049;-74
2023/09/28 10:03:56;;;;;;;6.85;2.53;;;;;;;;;;5040129;28;20053;-77
2023/09/28 10:06:30;;;;;;;;;;;;;;;;;;5042513;28;20540;-74
2023/09/28 10:09:00;;;;;;;4.97;3.05;;;;;;;;;;5042064;28;20727;-74
2023/09/28 10:11:31;;;;;;;6.03;2.80;;;;;;;;;;5041824;28;20049;-75
2023/09/28 10:14:02;;;;;;;6.55;3.00;;;;;;;;;;5040292;28;20496;-76
2023/09/28 10:16:34;;;;;;;4.85;2.45;;;;;;;;;;5041112;28;20041;-74
2023/09/28 10:19:08;;;;;;;8.57;2.55;;;;;;;;;;5039969;28;20099;-74
2023/09/28 10:21:39;;;;;;;8.15;2.72;;;;;;;;;;5042181;28;20052;-74
2023/09/28 10:24:12;;;;;;;6.53;3.03;;;;;;;;;;5041591;28;20033;-74
2023/09/28 10:26:51;;;;;;;5.22;2.60;;;;;;;;;;5041810;28;20412;-74
2023/09/28 10:29:32;;;;;;;6.38;2.72;;;;;;;;;;5041431;28;20072;-75
2023/09/28 10:32:12;;;;;;;14.52;2.83;;;;;;;;;;5039910;28;20049;-74
2023/09/28 10:34:45;;;;;;;6.45;2.38;;;;;;;;;;5041530;28;20052;-73
2023/09/28 10:37:21;;;;;;;8.80;2.80;;;;;;;;;;5041225;28;20199;-73
2023/09/28 10:39:55;;;;;;;8.18;2.60;;;;;;;;;;5041564;28;20858;-73
2023/09/28 10:42:27;;;;;;;4.60;2.47;;;;;;;;;;5039975;28;20569;-72
2023/09/28 10:45:00;;;;;;;18.30;2.75;;;;;;;;;;5041528;28;20053;-73
2023/09/28 10:47:32;;;;;;;5.75;3.10;;;;;;;;;;5040642;28;20052;-72
2023/09/28 10:50:08;;;;;;;9.88;2.45;;;;;;;;;;5040831;28;20479;-73
2023/09/28 10:52:38;;;;;;;11.43;2.85;;;;;;;;;;5043848;28;20059;-73
2023/09/28 10:55:09;;;;;;;12.02;2.95;;;;;;;;;;5044941;28;20068;-73
2023/09/28 10:57:41;;;;;;;7.45;2.40;;;;;;;;;;5044864;28;20052;-72
2023/09/28 11:00:12;;;;;;;6.95;2.70;;;;;;;;;;5045123;28;20411;-72
2023/09/28 11:02:44;;;;;;;10.32;2.67;;;;;;;;;;5044435;28;20048;-73
2023/09/28 11:05:18;;;;;;;6.72;2.83;;;;;;;;;;5044511;28;20534;-73
2023/09/28 11:07:51;;;;;;;6.30;2.47;;;;;;;;;;5044878;28;20049;-73
2023/09/28 11:10:24;;;;;;;4.35;2.85;;;;;;;;;;5044719;28;20056;-76
2023/09/28 11:12:55;;;;;;;4.20;2.42;;;;;;;;;;5044087;28;20041;-74
2023/09/28 11:15:29;;;;;;;4.43;2.22;;;;;;;;;;5044675;28;20516;-73
2023/09/28 11:18:00;;;;;;;6.72;3.58;;;;;;;;;;5044502;28;20389;-73
2023/09/28 11:20:31;;;;;;;9.65;4.90;;;;;;;;;;5045413;28;20060;-73
2023/09/28 11:23:03;;;;;;;7.75;4.38;;;;;;;;;;5044643;28;20060;-73
2023/09/28 11:25:34;;;;;;;18.25;6.13;;;;;;;;;;5043869;28;20053;-74
2023/09/28 11:28:14;;;;;;;13.63;4.72;;;;;;;;;;5043983;28;20748;-72
2023/09/28 11:30:45;;;;;;;10.85;4.18;;;;;;;;;;5042366;28;20073;-74
2023/09/28 11:33:15;;;;;;;6.25;3.60;;;;;;;;;;5044424;28;20053;-74
2023/09/28 11:35:46;;;;;;;7.95;3.80;;;;;;;;;;5044190;28;20053;-74
2023/09/28 11:38:18;;;;;;;9.00;3.80;;;;;;;;;;5042079;28;20871;-74
2023/09/28 11:40:52;;;;;;;12.10;4.15;;;;;;;;;;5041639;28;20441;-74
2023/09/28 11:43:22;;;;;;;7.43;3.92;;;;;;;;;;5044033;28;20048;-74
2023/09/28 11:45:53;;;;;;;5.72;3.00;;;;;;;;;;5043771;28;20041;-74
2023/09/28 11:48:23;;;;;;;8.77;2.67;;;;;;;;;;5044155;28;20049;-74
2023/09/28 11:50:54;;;;;;;8.43;2.28;;;;;;;;;;5045137;28;20456;-74
2023/09/28 11:53:25;;;;;;;5.38;1.48;;;;;;;;;;5043578;28;20049;-83
2023/09/28 11:55:55;;;;;;;2.58;1.20;;;;;;;;;;5042971;28;20519;-74
2023/09/28 11:58:26;;;;;;;3.55;1.65;;;;;;;;;;5043767;28;20515;-73
2023/09/28 12:00:57;;;;;;;5.43;2.75;;;;;;;;;;5043714;28;20045;-74
2023/09/28 12:03:27;;;;;;;9.30;4.13;;;;;;;;;;5043067;28;20048;-74
2023/09/28 12:05:58;;;;;;;9.52;3.90;;;;;;;;;;5043879;28;20053;-74
2023/09/28 12:08:28;;;;;;;9.65;4.35;;;;;;;;;;5043331;28;20047;-74
2023/09/28 12:11:00;;;;;;;17.60;5.50;;;;;;;;;;5043003;28;20897;-74
2023/09/28 12:13:30;;;;;;;11.05;4.93;;;;;;;;;;5043528;28;20064;-74
2023/09/28 12:16:02;;;;;;;12.45;5.35;;;;;;;;;;5043995;28;20041;-74
2023/09/28 12:18:33;;;;;;;7.85;4.70;;;;;;;;;;5043529;28;20048;-74
2023/09/28 12:21:04;;;;;;;13.05;4.10;;;;;;;;;;5043784;28;20052;-74
2023/09/28 12:23:35;;;;;;;9.52;4.15;;;;;;;;;;5043635;28;20041;-75
2023/09/28 12:26:06;;;;;;;5.95;4.03;;;;;;;;;;5044288;28;20107;-74
2023/09/28 12:28:37;;;;;;;8.10;3.45;;;;;;;;;;5041512;28;20052;-74
2023/09/28 12:31:08;;;;;;;6.10;3.60;;;;;;;;;;5042470;28;20068;-73
2023/09/28 12:33:40;;;;;;;7.43;3.42;;;;;;;;;;5042810;28;20048;-74
2023/09/28 12:36:13;;;;;;;7.85;3.22;;;;;;;;;;5043115;28;20041;-74
2023/09/28 12:38:42;;;;;;;6.65;2.92;;;;;;;;;;5042919;28;20056;-74
2023/09/28 12:41:14;;;;;;;3.53;2.30;;;;;;;;;;5042317;28;20508;-74
2023/09/28 12:43:45;;;;;;;7.13;2.65;;;;;;;;;;5042990;28;20045;-75
2023/09/28 12:46:16;;;;;;;7.60;1.40;;;;;;;;;;5042923;28;20060;-74
2023/09/28 12:48:46;;;;;;;6.22;2.05;;;;;;;;;;5043447;28;20045;-74
2023/09/28 12:51:16;;;;;;;7.03;1.30;;;;;;;;;;5042862;28;20048;-75
2023/09/28 12:53:47;;;;;;;4.05;1.88;;;;;;;;;;5042877;28;20427;-74
2023/09/28 12:56:18;;;;;;;7.45;1.60;;;;;;;;;;5042195;28;20059;-74
2023/09/28 12:58:48;;;;;;;6.03;2.38;;;;;;;;;;5042680;28;20500;-76
2023/09/28 13:01:18;;;;;;;4.35;1.80;;;;;;;;;;5042635;28;20594;-74
2023/09/28 13:03:51;;;;;;;10.68;2.58;;;;;;;;;;5042333;28;20054;-81
2023/09/28 13:06:24;;;;;;;10.77;2.20;;;;;;;;;;5042493;28;20049;-75
2023/09/28 13:08:55;;;;;;;4.40;2.05;;;;;;;;;;5042440;28;20044;-75
2023/09/28 13:11:27;;;;;;;5.38;2.25;;;;;;;;;;5042058;28;20040;-76
2023/09/28 13:13:58;;;;;;;5.90;2.10;;;;;;;;;;5042450;28;20656;-74
2023/09/28 13:16:31;;;;;;;8.30;2.65;;;;;;;;;;5041935;28;20053;-75
2023/09/28 13:19:03;;;;;;;5.50;2.17;;;;;;;;;;5042910;28;20835;-75
2023/09/28 13:21:34;;;;;;;5.47;1.83;;;;;;;;;;5042512;28;20056;-74
2023/09/28 13:24:06;;;;;;;5.03;1.70;;;;;;;;;;5042066;28;20052;-74
2023/09/28 13:26:45;;;;;;;;;;;;;;;;;;5043367;28;20053;-74
2023/09/28 13:29:22;;;;;;;2.70;1.70;;;;;;;;;;5042121;28;19924;-74
2023/09/28 13:31:52;;;;;;;4.15;1.70;;;;;;;;;;5042282;28;20057;-74
2023/09/28 13:34:22;;;;;;;2.17;1.27;;;;;;;;;;5040879;28;20056;-74
2023/09/28 13:36:56;;;;;;;5.50;1.50;;;;;;;;;;5042765;28;20059;-74
2023/09/28 13:39:27;;;;;;;5.72;1.50;;;;;;;;;;5042394;28;20044;-74
2023/09/28 13:42:07;;;;;;;5.47;1.40;;;;;;;;;;5041690;28;20056;-75
2023/09/28 13:44:39;;;;;;;1.27;0.90;;;;;;;;;;5041205;28;20067;-73
2023/09/28 13:47:10;;;;;;;4.32;1.10;;;;;;;;;;5042341;28;20049;-73
2023/09/28 13:49:40;;;;;;;4.97;0.90;;;;;;;;;;5042118;28;20055;-74
2023/09/28 13:52:11;;;;;;;3.90;1.00;;;;;;;;;;5041756;28;20057;-74
2023/09/28 13:54:40;;;;;;;5.05;0.85;;;;;;;;;;5041753;28;20061;-78
2023/09/28 13:57:11;;;;;;;2.05;1.05;;;;;;;;;;5024226;28;20068;-73
2023/09/28 13:59:40;;;;;;;3.17;0.90;;;;;;;;;;5042181;28;20040;-74
2023/09/28 14:02:13;;;;;;;3.92;1.00;;;;;;;;;;5042063;28;20060;-78
2023/09/28 14:04:44;;;;;;;3.58;0.70;;;;;;;;;;5041587;28;20049;-73
2023/09/28 14:07:15;;;;;;;1.73;0.85;;;;;;;;;;5041693;28;20053;-74
2023/09/28 14:09:45;;;;;;;3.10;0.70;;;;;;;;;;5041706;28;20856;-74
2023/09/28 14:12:15;;;;;;;6.25;2.40;;;;;;;;;;5042339;28;20052;-74
2023/09/28 14:14:46;;;;;;;4.93;1.10;;;;;;;;;;5040838;28;20060;-74
2023/09/28 14:17:17;;;;;;;4.57;2.55;;;;;;;;;;5042251;28;20511;-74
2023/09/28 14:20:10;;;;;;;1.50;0.80;;;;;;;;;;5041909;28;20052;-74
2023/09/28 14:22:47;;;;;;;3.60;0.95;;;;;;;;;;5042138;28;20053;-74
2023/09/28 14:25:19;;;;;;;3.72;0.85;;;;;;;;;;5041303;28;20515;-73
2023/09/28 14:27:50;;;;;;;3.72;0.93;;;;;;;;;;5044017;28;20053;-74
2023/09/28 14:30:19;;;;;;;3.17;0.80;;;;;;;;;;5044046;28;20048;-74
2023/09/28 14:32:52;;;;;;;3.85;0.80;;;;;;;;;;5045818;28;20049;-74
2023/09/28 14:35:24;;;;;;;6.03;2.03;;;;;;;;;;5045150;28;20056;-75
2023/09/28 14:37:54;;;;;;;3.47;0.80;;;;;;;;;;5045249;28;20053;-75
2023/09/28 14:40:24;;;;;;;5.72;1.13;;;;;;;;;;5044820;28;20053;-78
2023/09/28 14:42:55;;;;;;;3.30;0.80;;;;;;;;;;5042605;28;20049;-76
2023/09/28 14:45:26;;;;;;;9.85;1.08;;;;;;;;;;5042382;28;20603;-75
2023/09/28 14:47:58;;;;;;;3.58;0.60;;;;;;;;;;5042548;28;20435;-81
2023/09/28 14:50:28;;;;;;;9.05;1.45;;;;;;;;;;5041069;28;20049;-75
2023/09/28 14:52:58;;;;;;;3.20;0.60;;;;;;;;;;5040871;28;20451;-74
2023/09/28 14:55:28;;;;;;;6.30;0.68;;;;;;;;;;5042839;28;20056;-75
2023/09/28 14:57:59;;;;;;;7.22;1.17;;;;;;;;;;5042289;28;20513;-75
2023/09/28 15:00:30;;;;;;;6.78;0.73;;;;;;;;;;5042473;28;20052;-81
2023/09/28 15:03:01;;;;;;;1.83;0.47;;;;;;;;;;5040698;28;20452;-75
2023/09/28 15:05:31;;;;;;;2.70;0.50;;;;;;;;;;5044601;28;20067;-75
2023/09/28 15:08:03;;;;;;;2.92;0.52;;;;;;;;;;5043474;28;20053;-75
2023/09/28 15:10:34;;;;;;;3.55;0.60;;;;;;;;;;5044956;28;20539;-83
2023/09/28 15:13:04;;;;;;;6.90;0.85;;;;;;;;;;5045261;28;20056;-74